Time;durP1;ratioP1;P1;durP2;ratioP2;P2;SDS_P1;SDS_P2;PMS_P1;PMS_P2;Temp;Humidity;BMP_temperature;BMP_pressure;BME280_temperature;BME280_humidity;BME280_pressure;Samples;Min_cycle;Max_cycle;Signal;HPM_P1;HPM_P2
2020/12/24 00:01:05;;;;;;;23.52;11.52;;;1.70;77.10;;;;;;5056381;28;20032;-73
2020/12/24 00:03:30;;;;;;;22.40;11.52;;;1.70;76.90;;;;;;5055956;28;20349;-73
2020/12/24 00:05:56;;;;;;;20.98;10.00;;;1.70;77.00;;;;;;5055968;28;20060;-73
2020/12/24 00:08:22;;;;;;;23.73;10.82;;;1.70;77.10;;;;;;5056241;28;20047;-73
2020/12/24 00:10:49;;;;;;;20.45;9.63;;;1.70;77.00;;;;;;5054502;28;20051;-74
2020/12/24 00:13:16;;;;;;;28.63;12.93;;;1.70;76.80;;;;;;5055651;28;20116;-72
2020/12/24 00:15:43;;;;;;;53.67;21.88;;;1.70;76.90;;;;;;5054729;28;20025;-73
2020/12/24 00:18:09;;;;;;;24.95;10.27;;;1.70;77.00;;;;;;5055524;28;20358;-72
2020/12/24 00:20:35;;;;;;;26.88;11.88;;;1.70;77.20;;;;;;5054128;28;20107;-73
2020/12/24 00:23:01;;;;;;;19.48;10.80;;;1.80;77.00;;;;;;5054337;28;20025;-73
2020/12/24 00:25:27;;;;;;;15.93;9.35;;;1.80;76.80;;;;;;5055296;28;20415;-73
2020/12/24 00:27:52;;;;;;;67.47;25.88;;;1.80;76.70;;;;;;5055598;28;20116;-73
2020/12/24 00:30:18;;;;;;;27.48;12.05;;;1.80;76.70;;;;;;5055508;28;20342;-73
2020/12/24 00:32:44;;;;;;;20.85;10.15;;;1.80;76.70;;;;;;5055594;28;20078;-73
2020/12/24 00:35:09;;;;;;;23.25;11.35;;;1.80;76.60;;;;;;5055530;28;20028;-74
2020/12/24 00:37:35;;;;;;;20.48;10.45;;;1.80;76.60;;;;;;5055419;28;20025;-72
2020/12/24 00:40:02;;;;;;;21.20;9.68;;;1.80;76.50;;;;;;5055758;28;20017;-74
2020/12/24 00:42:28;;;;;;;33.58;15.40;;;1.80;76.40;;;;;;5055346;28;20456;-73
2020/12/24 00:44:53;;;;;;;22.10;10.88;;;1.80;76.10;;;;;;5055383;28;20104;-74
2020/12/24 00:47:19;;;;;;;20.73;11.70;;;1.80;76.20;;;;;;5054602;28;20353;-73
2020/12/24 00:49:44;;;;;;;18.13;9.38;;;1.80;76.20;;;;;;5055384;28;20353;-73
2020/12/24 00:52:11;;;;;;;14.27;7.82;;;1.80;76.10;;;;;;5055408;28;20364;-72
2020/12/24 00:54:36;;;;;;;18.83;10.38;;;1.80;76.00;;;;;;5053829;28;20031;-73
2020/12/24 00:57:02;;;;;;;17.33;9.15;;;1.80;76.10;;;;;;5054813;28;20100;-73
2020/12/24 00:59:28;;;;;;;22.92;12.43;;;1.70;76.30;;;;;;5054736;28;20043;-73
2020/12/24 01:01:53;;;;;;;20.00;10.18;;;1.70;76.10;;;;;;5055262;28;20017;-73
2020/12/24 01:04:19;;;;;;;17.65;9.85;;;1.70;75.80;;;;;;5055246;28;20442;-73
2020/12/24 01:06:45;;;;;;;18.10;9.48;;;1.70;76.00;;;;;;5055130;28;20029;-73
2020/12/24 01:09:10;;;;;;;20.48;9.07;;;1.70;76.00;;;;;;5053405;28;20025;-73
2020/12/24 01:11:36;;;;;;;16.42;9.25;;;1.70;76.00;;;;;;5054750;28;20029;-74
2020/12/24 01:14:02;;;;;;;20.08;10.18;;;1.70;76.10;;;;;;5053162;28;20055;-73
2020/12/24 01:16:27;;;;;;;18.55;8.70;;;1.70;76.00;;;;;;5054781;28;20038;-73
2020/12/24 01:18:53;;;;;;;18.88;9.75;;;1.70;76.20;;;;;;5054688;28;20021;-73
2020/12/24 01:21:19;;;;;;;16.45;8.85;;;1.70;76.40;;;;;;5054911;28;20024;-74
2020/12/24 01:23:44;;;;;;;18.20;9.60;;;1.70;76.20;;;;;;5054326;28;20052;-73
2020/12/24 01:26:10;;;;;;;20.63;9.85;;;1.70;76.00;;;;;;5054820;28;20029;-73
2020/12/24 01:28:36;;;;;;;18.58;9.02;;;1.70;76.10;;;;;;5054256;28;20023;-72
2020/12/24 01:31:02;;;;;;;18.33;8.68;;;1.70;76.00;;;;;;5053324;28;20051;-73
2020/12/24 01:33:28;;;;;;;20.40;10.55;;;1.70;76.20;;;;;;5054177;28;20055;-72
2020/12/24 01:35:54;;;;;;;16.00;9.20;;;1.80;76.20;;;;;;5054149;28;20055;-73
2020/12/24 01:38:20;;;;;;;19.38;10.82;;;1.70;76.10;;;;;;5054635;28;20028;-74
2020/12/24 01:40:47;;;;;;;17.75;9.70;;;1.70;76.10;;;;;;5054883;28;20035;-73
2020/12/24 01:43:13;;;;;;;20.45;10.13;;;1.80;76.10;;;;;;5053144;28;20116;-73
2020/12/24 01:45:38;;;;;;;19.45;10.88;;;1.80;76.20;;;;;;5054271;28;20021;-73
2020/12/24 01:48:04;;;;;;;16.35;8.27;;;1.70;76.10;;;;;;5054674;28;20029;-74
2020/12/24 01:50:30;;;;;;;15.30;9.15;;;1.70;76.00;;;;;;5054643;28;20472;-73
2020/12/24 01:52:57;;;;;;;17.48;8.30;;;1.80;76.20;;;;;;5054400;28;20356;-73
2020/12/24 01:55:23;;;;;;;19.10;10.20;;;1.80;76.30;;;;;;5053535;28;20079;-73
2020/12/24 01:57:52;;;;;;;17.35;8.85;;;1.80;76.30;;;;;;5054095;28;20104;-73
2020/12/24 02:00:18;;;;;;;15.50;8.55;;;1.80;76.00;;;;;;5054000;28;20017;-72
2020/12/24 02:02:44;;;;;;;16.25;8.40;;;1.80;76.10;;;;;;5053856;28;20021;-73
2020/12/24 02:05:10;;;;;;;15.05;7.45;;;1.80;76.00;;;;;;5052657;28;20029;-72
2020/12/24 02:07:36;;;;;;;16.83;8.65;;;1.70;76.10;;;;;;5053894;28;20025;-73
2020/12/24 02:10:03;;;;;;;18.48;9.07;;;1.70;76.00;;;;;;5053512;28;20053;-74
2020/12/24 02:12:28;;;;;;;15.90;8.18;;;1.70;76.10;;;;;;5052530;28;20048;-73
2020/12/24 02:14:54;;;;;;;15.43;8.30;;;1.70;76.30;;;;;;5053745;28;20102;-73
2020/12/24 02:17:20;;;;;;;14.50;8.55;;;1.70;76.50;;;;;;5053541;28;20036;-73
2020/12/24 02:19:46;;;;;;;17.08;8.45;;;1.70;76.70;;;;;;5053451;28;20105;-72
2020/12/24 02:22:12;;;;;;;14.75;7.80;;;1.70;76.50;;;;;;5053728;28;20021;-72
2020/12/24 02:24:41;;;;;;;18.13;8.75;;;1.70;76.30;;;;;;5054000;28;20098;-72
2020/12/24 02:27:08;;;;;;;17.10;7.70;;;1.80;76.50;;;;;;5053644;28;20017;-73
2020/12/24 02:29:33;;;;;;;17.08;8.60;;;1.80;76.40;;;;;;5053190;28;20029;-72
2020/12/24 02:31:59;;;;;;;14.73;8.18;;;1.70;75.90;;;;;;5052778;28;20044;-73
2020/12/24 02:34:25;;;;;;;17.35;8.75;;;1.70;76.10;;;;;;5052163;28;20049;-72
2020/12/24 02:36:50;;;;;;;18.35;9.00;;;1.70;76.20;;;;;;5053908;28;20025;-72
2020/12/24 02:39:16;;;;;;;17.50;9.05;;;1.70;76.10;;;;;;5053846;28;20024;-73
2020/12/24 02:41:42;;;;;;;19.67;8.98;;;1.60;76.40;;;;;;5052105;28;20025;-73
2020/12/24 02:44:07;;;;;;;13.23;7.38;;;1.70;76.40;;;;;;5052111;28;20112;-73
2020/12/24 02:46:33;;;;;;;15.85;9.30;;;1.70;76.30;;;;;;5053396;28;20021;-72
2020/12/24 02:48:59;;;;;;;16.88;8.98;;;1.70;76.30;;;;;;5056292;28;20059;-73
2020/12/24 02:51:25;;;;;;;14.60;8.27;;;1.70;76.40;;;;;;5057170;28;20025;-73
2020/12/24 02:53:50;;;;;;;14.48;8.32;;;1.70;76.40;;;;;;5057599;28;20025;-72
2020/12/24 02:56:16;;;;;;;16.38;8.55;;;1.70;76.90;;;;;;5056234;28;20032;-74
2020/12/24 02:58:42;;;;;;;17.15;9.35;;;1.70;76.20;;;;;;5058291;28;20032;-72
2020/12/24 03:01:07;;;;;;;14.65;9.05;;;1.70;76.10;;;;;;5057950;28;20071;-73
2020/12/24 03:03:33;;;;;;;16.52;8.52;;;1.70;76.40;;;;;;5071267;28;20021;-72
2020/12/24 03:05:58;;;;;;;16.27;8.52;;;1.70;76.60;;;;;;5078414;28;20020;-73
2020/12/24 03:08:24;;;;;;;17.38;8.02;;;1.70;76.50;;;;;;5078726;28;20036;-72
2020/12/24 03:10:50;;;;;;;18.50;9.00;;;1.80;76.30;;;;;;5080190;28;20055;-72
2020/12/24 03:13:16;;;;;;;15.57;8.50;;;1.80;76.30;;;;;;5079035;28;20028;-72
2020/12/24 03:15:41;;;;;;;16.50;8.02;;;1.80;76.90;;;;;;5059990;28;20025;-73
2020/12/24 03:18:07;;;;;;;14.27;8.63;;;1.80;76.20;;;;;;5056118;28;20095;-73
2020/12/24 03:20:33;;;;;;;14.52;7.75;;;1.70;76.30;;;;;;5057218;28;20032;-73
2020/12/24 03:22:58;;;;;;;13.68;7.32;;;1.80;76.50;;;;;;5057319;28;20025;-73
2020/12/24 03:25:24;;;;;;;16.48;8.07;;;1.80;76.10;;;;;;5056868;28;20024;-73
2020/12/24 03:27:50;;;;;;;16.67;9.10;;;1.80;75.80;;;;;;5056858;28;20354;-72
2020/12/24 03:30:15;;;;;;;15.27;8.68;;;1.80;75.90;;;;;;5055178;28;20089;-73
2020/12/24 03:32:41;;;;;;;18.45;10.50;;;1.80;76.10;;;;;;5056447;28;20462;-73
2020/12/24 03:35:07;;;;;;;21.55;12.80;;;1.80;76.10;;;;;;5056406;28;20028;-73
2020/12/24 03:37:33;;;;;;;28.13;15.38;;;1.80;76.20;;;;;;5056717;28;20027;-73
2020/12/24 03:39:59;;;;;;;28.73;16.38;;;1.80;76.30;;;;;;5055839;28;20368;-73
2020/12/24 03:42:25;;;;;;;30.70;18.25;;;1.80;76.30;;;;;;5056338;28;20453;-73
2020/12/24 03:44:51;;;;;;;27.20;16.17;;;1.90;76.20;;;;;;5056294;28;20056;-73
2020/12/24 03:47:17;;;;;;;23.70;13.60;;;1.90;76.20;;;;;;5056533;28;20368;-73
2020/12/24 03:49:42;;;;;;;20.35;12.40;;;1.90;75.90;;;;;;5055127;28;20017;-73
2020/12/24 03:52:08;;;;;;;20.88;11.48;;;1.90;76.00;;;;;;5056358;28;20049;-73
2020/12/24 03:54:34;;;;;;;19.70;10.85;;;1.90;75.90;;;;;;5054972;28;20461;-73
2020/12/24 03:56:59;;;;;;;17.48;10.23;;;1.90;75.90;;;;;;5056037;28;20029;-72
2020/12/24 03:59:25;;;;;;;19.77;12.57;;;2.00;75.80;;;;;;5054925;28;20021;-74
2020/12/24 04:01:51;;;;;;;21.25;12.07;;;1.90;75.80;;;;;;5054867;28;20070;-73
2020/12/24 04:04:16;;;;;;;27.48;14.65;;;2.00;75.80;;;;;;5056452;28;20036;-74
2020/12/24 04:06:42;;;;;;;24.63;14.18;;;2.00;75.80;;;;;;5056022;28;20025;-73
2020/12/24 04:09:08;;;;;;;25.98;15.13;;;2.00;75.80;;;;;;5055062;28;20025;-75
2020/12/24 04:11:33;;;;;;;24.58;12.63;;;2.00;75.70;;;;;;5056169;28;20067;-73
2020/12/24 04:13:59;;;;;;;23.88;13.23;;;2.00;75.70;;;;;;5056209;28;20477;-74
2020/12/24 04:16:25;;;;;;;25.35;13.68;;;2.00;75.50;;;;;;5055899;28;20357;-74
2020/12/24 04:18:51;;;;;;;25.88;12.30;;;2.00;75.40;;;;;;5055960;28;20021;-72
2020/12/24 04:21:19;;;;;;;26.00;13.30;;;2.00;75.60;;;;;;5055842;28;20107;-73
2020/12/24 04:23:44;;;;;;;29.70;14.98;;;2.00;75.60;;;;;;5056061;28;20032;-72
2020/12/24 04:26:18;;;;;;;26.80;15.48;;;2.00;75.60;;;;;;5054914;28;20033;-74
2020/12/24 04:28:43;;;;;;;32.50;18.35;;;2.10;75.50;;;;;;5055590;28;20056;-73
2020/12/24 04:31:09;;;;;;;26.55;14.93;;;2.10;75.50;;;;;;5055857;28;20068;-79
2020/12/24 04:33:37;;;;;;;26.83;13.90;;;2.10;75.40;;;;;;5054261;28;20021;-74
2020/12/24 04:36:03;;;;;;;25.48;13.57;;;2.10;75.40;;;;;;5055293;28;20048;-73
2020/12/24 04:38:29;;;;;;;21.35;13.00;;;2.10;75.40;;;;;;5055432;28;20029;-74
2020/12/24 04:40:57;;;;;;;23.55;13.55;;;2.10;75.40;;;;;;5055249;28;20028;-74
2020/12/24 04:43:25;;;;;;;23.10;12.13;;;2.10;75.30;;;;;;5055460;28;20024;-72
2020/12/24 04:45:52;;;;;;;23.52;13.18;;;2.10;75.00;;;;;;5055577;28;20016;-75
2020/12/24 04:48:18;;;;;;;31.27;14.13;;;2.10;75.10;;;;;;5053982;28;20027;-72
2020/12/24 04:50:50;;;;;;;32.50;14.25;;;2.10;75.10;;;;;;5053850;28;20040;-72
2020/12/24 04:53:17;;;;;;;46.72;18.65;;;2.10;75.10;;;;;;5054870;28;20021;-73
2020/12/24 04:55:42;;;;;;;61.40;22.17;;;2.10;75.10;;;;;;5055446;28;20021;-73
2020/12/24 04:58:11;;;;;;;76.47;26.15;;;2.00;75.10;;;;;;5055406;28;20044;-73
2020/12/24 05:00:39;;;;;;;70.22;26.13;;;2.00;75.10;;;;;;5053753;28;20021;-73
2020/12/24 05:03:07;;;;;;;67.93;26.15;;;2.10;75.30;;;;;;5055044;28;20024;-73
2020/12/24 05:05:33;;;;;;;81.07;26.45;;;2.10;75.20;;;;;;5055046;28;20029;-72
2020/12/24 05:08:03;;;;;;;52.53;22.60;;;2.10;74.90;;;;;;5055051;28;20024;-73
2020/12/24 05:10:30;;;;;;;57.35;21.85;;;2.00;75.00;;;;;;5054490;28;20130;-73
2020/12/24 05:12:56;;;;;;;40.33;17.52;;;2.10;75.40;;;;;;5055140;28;20356;-73
2020/12/24 05:15:26;;;;;;;40.78;16.48;;;2.10;75.30;;;;;;5054526;28;20017;-74
2020/12/24 05:17:52;;;;;;;39.17;15.88;;;2.10;74.90;;;;;;5054467;28;20052;-73
2020/12/24 05:20:18;;;;;;;43.25;17.27;;;2.10;75.00;;;;;;5053359;28;20032;-73
2020/12/24 05:22:44;;;;;;;62.15;22.63;;;2.10;75.10;;;;;;5054679;28;20028;-73
2020/12/24 05:25:11;;;;;;;70.28;27.42;;;2.10;75.30;;;;;;5054330;28;20032;-73
2020/12/24 05:27:38;;;;;;;84.70;30.98;;;2.10;75.10;;;;;;5054515;28;20024;-74
2020/12/24 05:30:05;;;;;;;76.68;30.83;;;2.10;75.00;;;;;;5054408;28;20108;-73
2020/12/24 05:32:32;;;;;;;73.28;29.13;;;2.10;74.90;;;;;;5054516;28;20032;-74
2020/12/24 05:35:16;;;;;;;79.75;32.35;;;2.10;75.00;;;;;;5054137;28;20354;-74
2020/12/24 05:37:41;;;;;;;84.35;33.40;;;2.10;74.90;;;;;;5052989;28;20025;-74
2020/12/24 05:40:24;;;;;;;76.15;30.40;;;2.10;74.60;;;;;;5052958;28;20097;-74
2020/12/24 05:42:59;;;;;;;74.82;30.33;;;2.10;75.10;;;;;;5054224;28;20025;-74
2020/12/24 05:45:29;;;;;;;59.55;24.13;;;2.10;75.20;;;;;;5054192;28;20029;-73
2020/12/24 05:48:14;;;;;;;58.15;23.95;;;2.10;74.90;;;;;;5054159;28;20082;-73
2020/12/24 05:50:42;;;;;;;47.88;22.77;;;2.10;75.00;;;;;;5054085;28;20116;-73
2020/12/24 05:53:16;;;;;;;46.55;22.65;;;2.20;75.10;;;;;;5054189;28;20037;-73
2020/12/24 05:55:43;;;;;;;44.45;20.83;;;2.20;75.10;;;;;;5054014;28;20091;-73
2020/12/24 05:58:09;;;;;;;41.00;21.17;;;2.20;75.00;;;;;;5053936;28;20361;-74
2020/12/24 06:00:42;;;;;;;62.08;29.55;;;2.20;75.00;;;;;;5052583;28;20020;-74
2020/12/24 06:03:16;;;;;;;49.03;23.42;;;2.30;74.90;;;;;;5053605;28;20428;-72
2020/12/24 06:05:57;;;;;;;52.97;25.17;;;2.20;74.80;;;;;;5053590;28;20448;-73
2020/12/24 06:08:25;;;;;;;35.20;18.80;;;2.20;74.70;;;;;;5052662;28;20456;-74
2020/12/24 06:11:08;;;;;;;35.13;17.42;;;2.30;74.80;;;;;;5052229;28;20511;-73
2020/12/24 06:13:45;;;;;;;35.97;16.90;;;2.20;74.70;;;;;;5052257;28;20070;-74
2020/12/24 06:16:14;;;;;;;30.70;15.82;;;2.30;74.80;;;;;;5053461;28;20392;-73
2020/12/24 06:18:47;;;;;;;28.00;15.52;;;2.30;74.70;;;;;;5054152;28;20029;-74
2020/12/24 06:21:20;;;;;;;36.95;19.90;;;2.30;74.80;;;;;;5053497;28;20603;-74
2020/12/24 06:23:57;;;;;;;38.15;21.67;;;2.20;74.90;;;;;;5052250;28;20025;-76
2020/12/24 06:26:56;;;;;;;54.25;27.02;;;2.20;74.70;;;;;;5053420;28;20044;-73
2020/12/24 06:29:25;;;;;;;50.50;25.95;;;2.30;74.90;;;;;;5051547;28;20036;-73
2020/12/24 06:31:53;;;;;;;61.22;28.67;;;2.30;74.80;;;;;;5052725;28;20025;-73
2020/12/24 06:34:30;;;;;;;50.35;25.50;;;2.30;75.00;;;;;;5053335;28;20028;-74
2020/12/24 06:36:57;;;;;;;43.60;19.67;;;2.30;74.90;;;;;;5053522;28;20098;-74
2020/12/24 06:39:52;;;;;;;47.22;22.35;;;2.30;74.70;;;;;;5053335;28;20021;-74
2020/12/24 06:42:46;;;;;;;43.53;20.63;;;2.20;74.70;;;;;;5053530;28;20032;-74
2020/12/24 06:45:21;;;;;;;57.00;25.65;;;2.20;74.70;;;;;;5051821;28;20025;-75
2020/12/24 06:48:16;;;;;;;48.00;20.85;;;2.20;74.80;;;;;;5051529;28;20020;-74
2020/12/24 06:50:43;;;;;;;53.05;27.73;;;2.20;75.00;;;;;;5051990;28;20548;-74
2020/12/24 06:53:25;;;;;;;44.55;20.52;;;2.20;75.00;;;;;;5053273;28;20361;-74
2020/12/24 06:56:17;;;;;;;50.35;24.20;;;2.20;75.30;;;;;;5053037;28;20068;-74
2020/12/24 06:58:50;;;;;;;42.28;18.20;;;2.20;75.50;;;;;;5054656;28;20024;-75
2020/12/24 07:01:23;;;;;;;44.65;20.58;;;2.20;75.50;;;;;;5053068;28;20110;-75
2020/12/24 07:03:51;;;;;;;58.58;29.42;;;2.30;75.30;;;;;;5053029;28;20403;-75
2020/12/24 07:06:41;;;;;;;61.60;29.67;;;2.20;75.30;;;;;;5052768;28;20059;-73
2020/12/24 07:09:18;;;;;;;59.28;28.60;;;2.30;75.40;;;;;;5053095;28;20021;-76
2020/12/24 07:11:47;;;;;;;60.17;27.45;;;2.30;75.40;;;;;;5053562;28;20361;-75
2020/12/24 07:14:31;;;;;;;58.72;26.48;;;2.30;75.60;;;;;;5053069;28;20049;-73
2020/12/24 07:16:58;;;;;;;63.78;28.30;;;2.30;75.20;;;;;;5052921;28;20090;-73
2020/12/24 07:19:24;;;;;;;58.05;26.85;;;2.30;75.60;;;;;;5052857;28;20082;-74
2020/12/24 07:21:54;;;;;;;57.00;26.23;;;2.40;75.90;;;;;;5053470;28;20037;-73
2020/12/24 07:24:30;;;;;;;53.50;23.20;;;2.40;75.50;;;;;;5052439;28;20334;-73
2020/12/24 07:26:57;;;;;;;74.30;31.50;;;2.40;75.40;;;;;;5052698;28;20031;-72
2020/12/24 07:29:26;;;;;;;75.32;31.30;;;2.40;75.30;;;;;;5052634;28;20029;-72
2020/12/24 07:31:54;;;;;;;53.03;26.27;;;2.40;75.40;;;;;;5051253;28;20063;-73
2020/12/24 07:34:27;;;;;;;64.13;29.63;;;2.40;75.50;;;;;;5055378;28;20029;-74
2020/12/24 07:36:53;;;;;;;67.70;30.77;;;2.50;75.50;;;;;;5056279;28;20354;-74
2020/12/24 07:39:19;;;;;;;61.35;30.88;;;2.40;75.20;;;;;;5055621;28;20132;-74
2020/12/24 07:41:44;;;;;;;82.10;36.65;;;2.50;75.50;;;;;;5056126;28;20025;-74
2020/12/24 07:44:11;;;;;;;78.18;35.90;;;2.40;75.40;;;;;;5055136;28;20036;-73
2020/12/24 07:46:37;;;;;;;55.08;27.05;;;2.40;75.60;;;;;;5056700;28;20017;-73
2020/12/24 07:49:04;;;;;;;61.33;30.08;;;2.50;75.80;;;;;;5055995;28;20461;-75
2020/12/24 07:51:30;;;;;;;50.63;26.95;;;2.50;75.80;;;;;;5056280;28;20073;-75
2020/12/24 07:54:12;;;;;;;66.97;30.88;;;2.50;75.70;;;;;;5056395;28;20099;-74
2020/12/24 07:56:44;;;;;;;64.05;28.98;;;2.60;75.60;;;;;;5056167;28;20365;-74
2020/12/24 07:59:10;;;;;;;63.22;30.08;;;2.60;75.60;;;;;;5056095;28;20032;-75
2020/12/24 08:01:36;;;;;;;59.50;27.40;;;2.60;75.60;;;;;;5055733;28;20028;-75
2020/12/24 08:04:04;;;;;;;99.68;47.83;;;2.60;75.60;;;;;;5056128;28;20048;-76
2020/12/24 08:06:34;;;;;;;59.83;24.23;;;2.70;75.80;;;;;;5056426;28;20028;-75
2020/12/24 08:09:13;;;;;;;46.25;19.25;;;2.70;75.70;;;;;;5055675;28;20499;-75
2020/12/24 08:11:39;;;;;;;36.80;15.93;;;2.80;75.80;;;;;;5055787;28;20095;-75
2020/12/24 08:14:05;;;;;;;51.95;20.60;;;2.80;75.50;;;;;;5055884;28;20021;-73
2020/12/24 08:16:39;;;;;;;47.95;18.77;;;2.80;75.60;;;;;;5055942;28;20028;-75
2020/12/24 08:19:41;;;;;;;51.00;21.15;;;2.80;75.40;;;;;;5055367;28;20430;-75
2020/12/24 08:22:34;;;;;;;70.47;25.15;;;2.90;75.70;;;;;;5056151;28;20356;-75
2020/12/24 08:25:00;;;;;;;118.63;40.00;;;2.90;75.40;;;;;;5055905;28;20118;-74
2020/12/24 08:27:27;;;;;;;98.05;35.17;;;3.00;75.50;;;;;;5055104;28;20079;-74
2020/12/24 08:29:53;;;;;;;71.53;25.42;;;3.00;75.30;;;;;;5055552;28;20032;-73
2020/12/24 08:32:20;;;;;;;80.50;27.13;;;3.00;75.30;;;;;;5054861;28;20048;-75
2020/12/24 08:34:45;;;;;;;85.45;29.58;;;3.00;75.10;;;;;;5055626;28;20040;-74
2020/12/24 08:37:11;;;;;;;76.28;27.70;;;3.00;74.80;;;;;;5055057;28;20457;-74
2020/12/24 08:39:37;;;;;;;110.55;37.88;;;3.00;74.70;;;;;;5055130;28;20432;-74
2020/12/24 08:42:05;;;;;;;114.90;38.60;;;2.90;75.10;;;;;;5055563;28;20025;-75
2020/12/24 08:44:32;;;;;;;104.40;34.38;;;2.90;75.30;;;;;;5054733;28;20017;-76
2020/12/24 08:47:08;;;;;;;94.22;32.33;;;3.00;75.30;;;;;;5055994;28;20031;-74
2020/12/24 08:49:42;;;;;;;106.78;35.50;;;3.00;75.10;;;;;;5054774;28;20479;-73
2020/12/24 08:52:20;;;;;;;65.65;22.67;;;3.00;75.00;;;;;;5055008;28;20043;-74
2020/12/24 08:55:07;;;;;;;81.60;30.33;;;2.90;75.10;;;;;;5053971;28;20021;-75
2020/12/24 08:57:34;;;;;;;82.40;31.27;;;2.90;75.20;;;;;;5053848;28;20021;-74
2020/12/24 09:00:03;;;;;;;78.03;30.40;;;2.90;75.20;;;;;;5054933;28;20112;-74
2020/12/24 09:02:36;;;;;;;60.85;25.67;;;2.90;75.20;;;;;;5055413;28;20025;-75
2020/12/24 09:05:05;;;;;;;72.65;29.02;;;2.90;75.00;;;;;;5055059;28;20021;-74
2020/12/24 09:07:36;;;;;;;66.90;27.85;;;2.90;75.70;;;;;;5053838;28;20113;-74
2020/12/24 09:10:10;;;;;;;94.60;35.03;;;2.90;75.90;;;;;;5054751;28;20037;-75
2020/12/24 09:12:37;;;;;;;97.10;36.75;;;2.90;76.00;;;;;;5055091;28;20446;-75
2020/12/24 09:15:29;;;;;;;70.80;29.17;;;3.00;76.40;;;;;;5055337;28;20056;-75
2020/12/24 09:17:57;;;;;;;93.80;31.55;;;3.10;76.20;;;;;;5052372;28;20036;-74
2020/12/24 09:20:27;;;;;;;102.40;37.30;;;3.10;76.10;;;;;;5055504;28;20109;-75
2020/12/24 09:22:56;;;;;;;75.57;28.42;;;3.10;75.70;;;;;;5055267;28;20124;-74
2020/12/24 09:25:35;;;;;;;85.55;30.17;;;3.10;75.60;;;;;;5054638;28;20108;-75
2020/12/24 09:28:16;;;;;;;74.95;27.52;;;3.00;75.80;;;;;;5054307;28;20035;-75
2020/12/24 09:30:42;;;;;;;76.90;28.02;;;3.00;75.60;;;;;;5055236;28;20021;-75
2020/12/24 09:33:08;;;;;;;76.35;26.88;;;3.00;75.60;;;;;;5053849;28;20082;-75
2020/12/24 09:35:33;;;;;;;85.55;29.33;;;3.00;75.70;;;;;;5053517;28;20021;-74
2020/12/24 09:37:59;;;;;;;74.45;26.35;;;3.00;76.10;;;;;;5053041;28;20033;-74
2020/12/24 09:40:25;;;;;;;78.10;28.20;;;3.00;76.10;;;;;;5053136;28;20352;-74
2020/12/24 09:42:51;;;;;;;53.25;21.23;;;3.00;76.20;;;;;;5054327;28;20052;-75
2020/12/24 09:45:17;;;;;;;51.08;19.92;;;3.00;76.20;;;;;;5054423;28;20067;-75
2020/12/24 09:47:47;;;;;;;46.40;20.35;;;3.00;76.20;;;;;;5054345;28;20432;-75
2020/12/24 09:50:13;;;;;;;56.00;21.00;;;3.00;76.20;;;;;;5054289;28;20029;-75
2020/12/24 09:52:39;;;;;;;70.82;26.92;;;3.00;76.00;;;;;;5052819;28;20468;-75
2020/12/24 09:55:05;;;;;;;77.82;29.35;;;3.00;76.30;;;;;;5054040;28;20021;-74
2020/12/24 09:57:35;;;;;;;74.88;28.02;;;3.00;76.90;;;;;;5052758;28;20338;-74
2020/12/24 10:00:06;;;;;;;81.13;29.83;;;3.10;76.60;;;;;;5054298;28;20029;-74
2020/12/24 10:02:32;;;;;;;75.57;27.38;;;3.10;76.80;;;;;;5053948;28;20025;-74
2020/12/24 10:04:58;;;;;;;60.33;24.75;;;3.20;76.90;;;;;;5052606;28;20460;-75
2020/12/24 10:07:23;;;;;;;61.05;24.15;;;3.20;76.60;;;;;;5054358;28;20099;-74
2020/12/24 10:09:50;;;;;;;44.35;19.63;;;3.30;76.30;;;;;;5054236;28;20118;-76
2020/12/24 10:12:21;;;;;;;56.50;22.20;;;3.30;76.00;;;;;;5052708;28;20036;-75
2020/12/24 10:14:47;;;;;;;51.25;22.50;;;3.30;76.10;;;;;;5052830;28;20021;-75
2020/12/24 10:17:14;;;;;;;74.25;26.55;;;3.30;76.30;;;;;;5053569;28;20420;-73
2020/12/24 10:19:43;;;;;;;60.30;23.92;;;3.40;76.30;;;;;;5053612;28;20531;-74
2020/12/24 10:22:13;;;;;;;65.03;25.95;;;3.40;76.10;;;;;;5053734;28;20036;-72
2020/12/24 10:24:40;;;;;;;62.35;25.90;;;3.40;76.00;;;;;;5053941;28;20075;-75
2020/12/24 10:27:09;;;;;;;69.88;27.60;;;3.40;76.10;;;;;;5053583;28;20013;-74
2020/12/24 10:29:36;;;;;;;82.22;31.27;;;3.40;76.00;;;;;;5053473;28;20417;-74
2020/12/24 10:32:02;;;;;;;75.05;29.50;;;3.50;76.10;;;;;;5053279;28;20021;-74
2020/12/24 10:34:27;;;;;;;77.18;28.95;;;3.50;76.20;;;;;;5054058;28;20075;-74
2020/12/24 10:36:55;;;;;;;79.75;31.10;;;3.50;76.30;;;;;;5053386;28;20044;-74
2020/12/24 10:39:21;;;;;;;80.93;30.00;;;3.50;75.90;;;;;;5053461;28;20017;-73
2020/12/24 10:41:51;;;;;;;108.40;40.00;;;3.50;76.00;;;;;;5052924;28;20083;-74
2020/12/24 10:44:17;;;;;;;108.75;40.08;;;3.50;75.60;;;;;;5053869;28;20107;-75
2020/12/24 10:46:43;;;;;;;127.43;42.72;;;3.50;75.70;;;;;;5052298;28;20031;-75
2020/12/24 10:49:09;;;;;;;126.97;43.10;;;3.50;76.00;;;;;;5053523;28;20051;-75
2020/12/24 10:51:35;;;;;;;115.53;40.47;;;3.50;76.10;;;;;;5053624;28;20024;-76
2020/12/24 10:54:01;;;;;;;114.72;41.53;;;3.50;75.60;;;;;;5053474;28;20036;-74
2020/12/24 10:56:27;;;;;;;117.32;43.10;;;3.50;75.50;;;;;;5052965;28;20088;-74
2020/12/24 10:58:53;;;;;;;105.97;39.63;;;3.50;76.00;;;;;;5053310;28;20025;-74
2020/12/24 11:01:19;;;;;;;98.97;37.55;;;3.50;76.10;;;;;;5052918;28;20029;-75
2020/12/24 11:03:45;;;;;;;116.35;41.00;;;3.50;75.90;;;;;;5053468;28;20079;-74
2020/12/24 11:06:21;;;;;;;106.75;39.75;;;3.50;75.90;;;;;;5053418;28;20032;-74
2020/12/24 11:08:47;;;;;;;113.22;39.72;;;3.50;76.10;;;;;;5055123;28;20028;-74
2020/12/24 11:11:14;;;;;;;114.18;42.65;;;3.50;76.40;;;;;;5055952;28;20419;-74
2020/12/24 11:13:44;;;;;;;127.13;41.65;;;3.60;76.20;;;;;;5057358;28;20057;-74
2020/12/24 11:16:12;;;;;;;123.43;44.58;;;3.60;76.20;;;;;;5056962;28;20021;-74
2020/12/24 11:18:39;;;;;;;109.65;40.80;;;3.60;76.20;;;;;;5057224;28;20024;-74
2020/12/24 11:21:05;;;;;;;82.85;30.73;;;3.60;76.50;;;;;;5056888;28;20318;-74
2020/12/24 11:23:33;;;;;;;128.05;47.92;;;3.70;76.60;;;;;;5057832;28;20100;-77
2020/12/24 11:25:59;;;;;;;121.65;40.72;;;3.70;76.40;;;;;;5058790;28;20024;-75
2020/12/24 11:28:25;;;;;;;145.65;52.10;;;3.70;76.10;;;;;;5073027;28;20164;-74
2020/12/24 11:30:50;;;;;;;147.07;51.60;;;3.70;75.90;;;;;;5076905;28;20033;-74
2020/12/24 11:33:16;;;;;;;122.60;45.85;;;3.60;75.80;;;;;;5078005;28;20036;-76
2020/12/24 11:35:42;;;;;;;128.80;47.97;;;3.60;76.00;;;;;;5077785;28;20047;-73
2020/12/24 11:38:07;;;;;;;107.20;41.20;;;3.60;75.70;;;;;;5075823;28;20017;-74
2020/12/24 11:40:33;;;;;;;96.22;33.80;;;3.60;76.00;;;;;;5056234;28;20163;-75
2020/12/24 11:42:59;;;;;;;94.55;34.55;;;3.50;76.00;;;;;;5056948;28;20021;-75
2020/12/24 11:45:25;;;;;;;90.78;32.67;;;3.50;75.80;;;;;;5056823;28;20438;-76
2020/12/24 11:47:50;;;;;;;111.50;39.70;;;3.40;76.20;;;;;;5056603;28;20108;-74
2020/12/24 11:50:16;;;;;;;101.32;38.08;;;3.40;76.20;;;;;;5055609;28;20108;-75
2020/12/24 11:52:42;;;;;;;112.95;40.10;;;3.40;76.50;;;;;;5056456;28;20023;-74
2020/12/24 11:55:08;;;;;;;102.53;36.40;;;3.50;76.50;;;;;;5056259;28;20017;-76
2020/12/24 11:57:36;;;;;;;119.38;40.75;;;3.50;76.70;;;;;;5056684;28;20029;-74
2020/12/24 12:00:08;;;;;;;110.88;38.72;;;3.50;76.70;;;;;;5056102;28;20112;-74
2020/12/24 12:02:34;;;;;;;91.10;36.03;;;3.40;76.60;;;;;;5056454;28;20023;-75
2020/12/24 12:04:59;;;;;;;79.78;29.42;;;3.40;76.40;;;;;;5057058;28;20416;-74
2020/12/24 12:07:25;;;;;;;89.15;31.05;;;3.40;76.80;;;;;;5056496;28;20017;-75
2020/12/24 12:09:51;;;;;;;99.63;35.38;;;3.40;77.10;;;;;;5054440;28;20087;-74
2020/12/24 12:12:17;;;;;;;107.00;36.40;;;3.40;77.00;;;;;;5056610;28;20025;-74
2020/12/24 12:14:44;;;;;;;94.47;33.70;;;3.40;77.00;;;;;;5055283;28;20106;-75
2020/12/24 12:17:13;;;;;;;89.47;29.73;;;3.40;77.20;;;;;;5056948;28;20365;-75
2020/12/24 12:19:44;;;;;;;111.45;37.55;;;3.40;77.40;;;;;;5053815;28;20111;-75
2020/12/24 12:22:12;;;;;;;96.72;32.85;;;3.50;77.70;;;;;;5055846;28;20035;-74
2020/12/24 12:24:41;;;;;;;116.45;39.45;;;3.50;77.40;;;;;;5055734;28;20032;-73
2020/12/24 12:27:07;;;;;;;138.90;47.72;;;3.50;77.00;;;;;;5055588;28;20028;-74
2020/12/24 12:29:34;;;;;;;122.68;43.53;;;3.40;76.70;;;;;;5055502;28;20017;-74
2020/12/24 12:31:59;;;;;;;121.68;41.17;;;3.40;77.00;;;;;;5055505;28;20099;-75
2020/12/24 12:34:26;;;;;;;78.97;29.35;;;3.40;76.90;;;;;;5055557;28;20021;-73
2020/12/24 12:36:53;;;;;;;101.18;31.70;;;3.30;77.00;;;;;;5055518;28;20128;-74
2020/12/24 12:39:19;;;;;;;114.88;38.63;;;3.30;76.90;;;;;;5054915;28;20024;-74
2020/12/24 12:41:45;;;;;;;113.88;41.33;;;3.20;77.10;;;;;;5055659;28;20428;-75
2020/12/24 12:44:11;;;;;;;128.07;43.25;;;3.20;77.50;;;;;;5055203;28;20071;-75